sensor_id;sensor_type;location;lat;lon;timestamp;P1;durP1;ratioP1;P2;durP2;ratioP2
846;SDS011;410;48.954;9.474;2023-02-08T00:00:13;12.20;;;9.68;;
846;SDS011;410;48.954;9.474;2023-02-08T00:02:16;15.38;;;9.70;;
846;SDS011;410;48.954;9.474;2023-02-08T00:04:21;14.48;;;10.60;;
846;SDS011;410;48.954;9.474;2023-02-08T00:06:24;13.82;;;9.50;;
846;SDS011;410;48.954;9.474;2023-02-08T00:08:27;15.10;;;10.10;;
846;SDS011;410;48.954;9.474;2023-02-08T00:10:30;14.95;;;9.25;;
846;SDS011;410;48.954;9.474;2023-02-08T00:12:33;13.55;;;9.50;;
846;SDS011;410;48.954;9.474;2023-02-08T00:14:36;12.75;;;9.90;;
846;SDS011;410;48.954;9.474;2023-02-08T00:16:39;13.85;;;8.95;;
846;SDS011;410;48.954;9.474;2023-02-08T00:18:42;15.80;;;9.98;;
846;SDS011;410;48.954;9.474;2023-02-08T00:20:47;15.90;;;10.48;;
846;SDS011;410;48.954;9.474;2023-02-08T00:22:50;16.15;;;10.32;;
846;SDS011;410;48.954;9.474;2023-02-08T00:24:54;14.60;;;9.93;;
846;SDS011;410;48.954;9.474;2023-02-08T00:26:57;15.93;;;9.85;;
846;SDS011;410;48.954;9.474;2023-02-08T00:29:00;14.95;;;10.00;;
846;SDS011;410;48.954;9.474;2023-02-08T00:31:03;14.30;;;9.10;;
846;SDS011;410;48.954;9.474;2023-02-08T00:33:08;18.85;;;11.82;;
846;SDS011;410;48.954;9.474;2023-02-08T00:35:11;15.00;;;10.27;;
846;SDS011;410;48.954;9.474;2023-02-08T00:37:15;18.02;;;10.25;;
846;SDS011;410;48.954;9.474;2023-02-08T00:39:19;15.77;;;12.15;;
846;SDS011;410;48.954;9.474;2023-02-08T00:41:22;18.70;;;11.45;;
846;SDS011;410;48.954;9.474;2023-02-08T00:43:25;17.02;;;11.93;;
846;SDS011;410;48.954;9.474;2023-02-08T00:45:28;16.63;;;10.80;;
846;SDS011;410;48.954;9.474;2023-02-08T00:47:32;20.90;;;12.60;;
846;SDS011;410;48.954;9.474;2023-02-08T00:49:35;16.38;;;13.65;;
846;SDS011;410;48.954;9.474;2023-02-08T00:51:38;16.85;;;11.80;;
846;SDS011;410;48.954;9.474;2023-02-08T00:53:43;16.83;;;10.93;;
846;SDS011;410;48.954;9.474;2023-02-08T00:55:49;14.43;;;11.05;;
846;SDS011;410;48.954;9.474;2023-02-08T00:57:52;15.85;;;11.68;;
846;SDS011;410;48.954;9.474;2023-02-08T00:59:55;16.70;;;11.05;;
846;SDS011;410;48.954;9.474;2023-02-08T01:01:58;15.90;;;10.38;;
846;SDS011;410;48.954;9.474;2023-02-08T01:04:02;17.52;;;11.90;;
846;SDS011;410;48.954;9.474;2023-02-08T01:06:06;16.95;;;10.90;;
846;SDS011;410;48.954;9.474;2023-02-08T01:08:09;15.32;;;10.68;;
846;SDS011;410;48.954;9.474;2023-02-08T01:10:14;16.80;;;10.27;;
846;SDS011;410;48.954;9.474;2023-02-08T01:12:17;16.20;;;11.05;;
846;SDS011;410;48.954;9.474;2023-02-08T01:14:20;17.80;;;11.23;;
846;SDS011;410;48.954;9.474;2023-02-08T01:16:24;18.65;;;12.25;;
846;SDS011;410;48.954;9.474;2023-02-08T01:18:28;19.20;;;11.98;;
846;SDS011;410;48.954;9.474;2023-02-08T01:20:33;20.10;;;11.60;;
846;SDS011;410;48.954;9.474;2023-02-08T01:22:37;17.83;;;11.65;;
846;SDS011;410;48.954;9.474;2023-02-08T01:24:40;16.50;;;10.88;;
846;SDS011;410;48.954;9.474;2023-02-08T01:26:44;20.00;;;12.18;;
846;SDS011;410;48.954;9.474;2023-02-08T01:28:47;19.98;;;12.57;;
846;SDS011;410;48.954;9.474;2023-02-08T01:30:51;17.52;;;10.95;;
846;SDS011;410;48.954;9.474;2023-02-08T01:32:54;17.33;;;11.02;;
846;SDS011;410;48.954;9.474;2023-02-08T01:34:57;18.58;;;11.85;;
846;SDS011;410;48.954;9.474;2023-02-08T01:37:00;18.73;;;12.00;;
846;SDS011;410;48.954;9.474;2023-02-08T01:39:03;20.00;;;12.45;;
846;SDS011;410;48.954;9.474;2023-02-08T01:41:10;26.27;;;14.45;;
846;SDS011;410;48.954;9.474;2023-02-08T01:43:19;18.90;;;11.43;;
846;SDS011;410;48.954;9.474;2023-02-08T01:45:25;19.27;;;12.75;;
846;SDS011;410;48.954;9.474;2023-02-08T01:47:30;17.48;;;11.25;;
846;SDS011;410;48.954;9.474;2023-02-08T01:49:33;17.55;;;11.15;;
846;SDS011;410;48.954;9.474;2023-02-08T01:51:38;18.73;;;11.60;;
846;SDS011;410;48.954;9.474;2023-02-08T01:53:43;20.50;;;12.77;;
846;SDS011;410;48.954;9.474;2023-02-08T01:55:46;16.45;;;10.90;;
846;SDS011;410;48.954;9.474;2023-02-08T01:57:54;18.25;;;11.13;;
846;SDS011;410;48.954;9.474;2023-02-08T02:00:00;20.33;;;11.95;;
846;SDS011;410;48.954;9.474;2023-02-08T02:02:15;20.23;;;12.80;;
846;SDS011;410;48.954;9.474;2023-02-08T02:04:20;18.40;;;11.73;;
846;SDS011;410;48.954;9.474;2023-02-08T02:06:26;15.85;;;11.20;;
846;SDS011;410;48.954;9.474;2023-02-08T02:08:32;20.77;;;12.27;;
846;SDS011;410;48.954;9.474;2023-02-08T02:10:36;16.00;;;11.13;;
846;SDS011;410;48.954;9.474;2023-02-08T02:12:41;18.13;;;10.90;;
846;SDS011;410;48.954;9.474;2023-02-08T02:14:44;16.33;;;11.45;;
846;SDS011;410;48.954;9.474;2023-02-08T02:16:49;16.40;;;10.70;;
846;SDS011;410;48.954;9.474;2023-02-08T02:18:53;22.08;;;12.27;;
846;SDS011;410;48.954;9.474;2023-02-08T02:21:01;18.25;;;11.82;;
846;SDS011;410;48.954;9.474;2023-02-08T02:23:28;18.67;;;12.27;;
846;SDS011;410;48.954;9.474;2023-02-08T02:25:51;17.10;;;11.43;;
846;SDS011;410;48.954;9.474;2023-02-08T02:28:09;18.33;;;10.77;;
846;SDS011;410;48.954;9.474;2023-02-08T02:30:29;17.50;;;11.65;;
846;SDS011;410;48.954;9.474;2023-02-08T02:32:43;18.65;;;11.90;;
846;SDS011;410;48.954;9.474;2023-02-08T02:34:51;16.45;;;10.65;;
846;SDS011;410;48.954;9.474;2023-02-08T02:37:02;15.90;;;11.27;;
846;SDS011;410;48.954;9.474;2023-02-08T02:39:14;17.48;;;11.70;;
846;SDS011;410;48.954;9.474;2023-02-08T02:41:24;15.00;;;10.73;;
846;SDS011;410;48.954;9.474;2023-02-08T02:43:53;17.85;;;11.05;;
846;SDS011;410;48.954;9.474;2023-02-08T02:46:02;17.88;;;10.57;;
846;SDS011;410;48.954;9.474;2023-02-08T02:48:09;17.30;;;11.00;;
846;SDS011;410;48.954;9.474;2023-02-08T02:50:15;16.38;;;10.13;;
846;SDS011;410;48.954;9.474;2023-02-08T02:52:23;17.92;;;11.05;;
846;SDS011;410;48.954;9.474;2023-02-08T02:54:30;15.93;;;10.75;;
846;SDS011;410;48.954;9.474;2023-02-08T02:56:36;17.75;;;10.90;;
846;SDS011;410;48.954;9.474;2023-02-08T02:58:41;16.00;;;10.98;;
846;SDS011;410;48.954;9.474;2023-02-08T03:00:50;17.15;;;11.80;;
846;SDS011;410;48.954;9.474;2023-02-08T03:02:54;16.42;;;10.43;;
846;SDS011;410;48.954;9.474;2023-02-08T03:05:00;16.40;;;11.30;;
846;SDS011;410;48.954;9.474;2023-02-08T03:07:04;16.15;;;11.23;;
846;SDS011;410;48.954;9.474;2023-02-08T03:09:20;17.10;;;10.65;;
846;SDS011;410;48.954;9.474;2023-02-08T03:11:31;18.75;;;11.32;;
846;SDS011;410;48.954;9.474;2023-02-08T03:13:39;17.00;;;10.68;;
846;SDS011;410;48.954;9.474;2023-02-08T03:15:51;20.20;;;10.82;;
846;SDS011;410;48.954;9.474;2023-02-08T03:18:03;14.85;;;11.40;;
846;SDS011;410;48.954;9.474;2023-02-08T03:20:09;19.25;;;11.63;;
846;SDS011;410;48.954;9.474;2023-02-08T03:22:16;14.80;;;10.70;;
846;SDS011;410;48.954;9.474;2023-02-08T03:24:24;20.33;;;12.02;;
846;SDS011;410;48.954;9.474;2023-02-08T03:26:30;16.55;;;11.00;;
846;SDS011;410;48.954;9.474;2023-02-08T03:28:38;16.08;;;11.40;;
846;SDS011;410;48.954;9.474;2023-02-08T03:30:46;17.45;;;11.23;;
846;SDS011;410;48.954;9.474;2023-02-08T03:32:55;17.55;;;11.93;;
846;SDS011;410;48.954;9.474;2023-02-08T03:35:01;19.63;;;11.85;;
846;SDS011;410;48.954;9.474;2023-02-08T03:37:08;19.52;;;11.95;;
846;SDS011;410;48.954;9.474;2023-02-08T03:39:14;18.08;;;11.75;;
846;SDS011;410;48.954;9.474;2023-02-08T03:41:21;27.67;;;13.27;;
846;SDS011;410;48.954;9.474;2023-02-08T03:43:26;20.08;;;12.25;;
846;SDS011;410;48.954;9.474;2023-02-08T03:45:32;20.45;;;12.20;;
846;SDS011;410;48.954;9.474;2023-02-08T03:47:38;16.55;;;10.95;;
846;SDS011;410;48.954;9.474;2023-02-08T03:49:42;18.80;;;11.93;;
846;SDS011;410;48.954;9.474;2023-02-08T03:51:47;18.63;;;11.93;;
846;SDS011;410;48.954;9.474;2023-02-08T03:53:52;18.65;;;11.60;;
846;SDS011;410;48.954;9.474;2023-02-08T03:55:58;18.75;;;11.73;;
846;SDS011;410;48.954;9.474;2023-02-08T03:58:03;19.23;;;11.90;;
846;SDS011;410;48.954;9.474;2023-02-08T04:00:09;17.95;;;11.27;;
846;SDS011;410;48.954;9.474;2023-02-08T04:02:16;17.33;;;10.98;;
846;SDS011;410;48.954;9.474;2023-02-08T04:04:21;20.02;;;11.98;;
846;SDS011;410;48.954;9.474;2023-02-08T04:06:24;18.00;;;11.25;;
846;SDS011;410;48.954;9.474;2023-02-08T04:08:28;16.63;;;11.50;;
846;SDS011;410;48.954;9.474;2023-02-08T04:10:33;18.33;;;11.48;;
846;SDS011;410;48.954;9.474;2023-02-08T04:12:36;19.35;;;11.30;;
846;SDS011;410;48.954;9.474;2023-02-08T04:14:39;18.65;;;11.40;;
846;SDS011;410;48.954;9.474;2023-02-08T04:16:42;18.88;;;11.43;;
846;SDS011;410;48.954;9.474;2023-02-08T04:18:45;16.20;;;11.65;;
846;SDS011;410;48.954;9.474;2023-02-08T04:20:48;15.40;;;11.27;;
846;SDS011;410;48.954;9.474;2023-02-08T04:22:51;19.85;;;11.68;;
846;SDS011;410;48.954;9.474;2023-02-08T04:24:54;18.42;;;11.80;;
846;SDS011;410;48.954;9.474;2023-02-08T04:26:58;17.60;;;12.68;;
846;SDS011;410;48.954;9.474;2023-02-08T04:29:01;17.23;;;11.73;;
846;SDS011;410;48.954;9.474;2023-02-08T04:31:04;20.58;;;12.00;;
846;SDS011;410;48.954;9.474;2023-02-08T04:33:07;22.67;;;12.40;;
846;SDS011;410;48.954;9.474;2023-02-08T04:35:13;18.98;;;11.80;;
846;SDS011;410;48.954;9.474;2023-02-08T04:37:16;19.60;;;13.00;;
846;SDS011;410;48.954;9.474;2023-02-08T04:39:19;18.70;;;11.43;;
846;SDS011;410;48.954;9.474;2023-02-08T04:41:22;16.83;;;11.63;;
846;SDS011;410;48.954;9.474;2023-02-08T04:43:26;18.60;;;12.40;;
846;SDS011;410;48.954;9.474;2023-02-08T04:45:30;18.27;;;12.15;;
846;SDS011;410;48.954;9.474;2023-02-08T04:47:33;24.38;;;13.35;;
846;SDS011;410;48.954;9.474;2023-02-08T04:49:36;19.70;;;12.95;;
846;SDS011;410;48.954;9.474;2023-02-08T04:51:39;18.75;;;11.90;;
846;SDS011;410;48.954;9.474;2023-02-08T04:53:42;19.10;;;12.57;;
846;SDS011;410;48.954;9.474;2023-02-08T04:55:45;18.38;;;12.00;;
846;SDS011;410;48.954;9.474;2023-02-08T04:57:48;20.83;;;13.02;;
846;SDS011;410;48.954;9.474;2023-02-08T04:59:52;17.27;;;11.45;;
846;SDS011;410;48.954;9.474;2023-02-08T05:01:56;18.55;;;12.15;;
846;SDS011;410;48.954;9.474;2023-02-08T05:03:59;19.10;;;12.30;;
846;SDS011;410;48.954;9.474;2023-02-08T05:06:02;18.25;;;12.80;;
846;SDS011;410;48.954;9.474;2023-02-08T05:08:05;20.88;;;12.60;;
846;SDS011;410;48.954;9.474;2023-02-08T05:10:08;20.05;;;12.00;;
846;SDS011;410;48.954;9.474;2023-02-08T05:12:11;17.98;;;12.30;;
846;SDS011;410;48.954;9.474;2023-02-08T05:14:14;18.23;;;12.32;;
846;SDS011;410;48.954;9.474;2023-02-08T05:16:19;21.15;;;13.02;;
846;SDS011;410;48.954;9.474;2023-02-08T05:18:22;20.13;;;12.73;;
846;SDS011;410;48.954;9.474;2023-02-08T05:20:25;19.42;;;12.60;;
846;SDS011;410;48.954;9.474;2023-02-08T05:22:28;25.05;;;13.38;;
846;SDS011;410;48.954;9.474;2023-02-08T05:24:31;20.15;;;12.68;;
846;SDS011;410;48.954;9.474;2023-02-08T05:26:34;23.70;;;13.48;;
846;SDS011;410;48.954;9.474;2023-02-08T05:28:37;22.42;;;12.35;;
846;SDS011;410;48.954;9.474;2023-02-08T05:30:41;19.45;;;13.60;;
846;SDS011;410;48.954;9.474;2023-02-08T05:32:45;21.45;;;13.93;;
846;SDS011;410;48.954;9.474;2023-02-08T05:34:48;19.48;;;12.60;;
846;SDS011;410;48.954;9.474;2023-02-08T05:36:51;20.65;;;12.80;;
846;SDS011;410;48.954;9.474;2023-02-08T05:38:54;19.80;;;12.10;;
846;SDS011;410;48.954;9.474;2023-02-08T05:40:57;24.65;;;14.27;;
846;SDS011;410;48.954;9.474;2023-02-08T05:43:00;19.45;;;12.63;;
846;SDS011;410;48.954;9.474;2023-02-08T05:45:04;20.40;;;13.13;;
846;SDS011;410;48.954;9.474;2023-02-08T05:47:07;23.63;;;13.82;;
846;SDS011;410;48.954;9.474;2023-02-08T05:49:12;23.17;;;13.20;;
846;SDS011;410;48.954;9.474;2023-02-08T05:51:15;23.60;;;14.07;;
846;SDS011;410;48.954;9.474;2023-02-08T05:53:18;19.67;;;12.82;;
846;SDS011;410;48.954;9.474;2023-02-08T05:55:21;21.52;;;13.50;;
846;SDS011;410;48.954;9.474;2023-02-08T05:57:24;22.70;;;13.10;;
846;SDS011;410;48.954;9.474;2023-02-08T05:59:27;23.20;;;13.07;;
846;SDS011;410;48.954;9.474;2023-02-08T06:01:30;21.23;;;12.15;;
846;SDS011;410;48.954;9.474;2023-02-08T06:03:34;20.33;;;13.57;;
846;SDS011;410;48.954;9.474;2023-02-08T06:05:38;21.45;;;13.60;;
846;SDS011;410;48.954;9.474;2023-02-08T06:07:41;19.75;;;13.25;;
846;SDS011;410;48.954;9.474;2023-02-08T06:09:45;24.55;;;14.48;;
846;SDS011;410;48.954;9.474;2023-02-08T06:11:49;22.45;;;14.35;;
846;SDS011;410;48.954;9.474;2023-02-08T06:13:52;22.92;;;14.07;;
846;SDS011;410;48.954;9.474;2023-02-08T06:15:55;23.20;;;13.30;;
846;SDS011;410;48.954;9.474;2023-02-08T06:17:58;21.25;;;12.20;;
846;SDS011;410;48.954;9.474;2023-02-08T06:20:01;23.33;;;13.55;;
846;SDS011;410;48.954;9.474;2023-02-08T06:22:05;22.25;;;13.75;;
846;SDS011;410;48.954;9.474;2023-02-08T06:24:08;21.65;;;14.20;;
846;SDS011;410;48.954;9.474;2023-02-08T06:26:12;21.35;;;13.40;;
846;SDS011;410;48.954;9.474;2023-02-08T06:28:15;21.33;;;13.00;;
846;SDS011;410;48.954;9.474;2023-02-08T06:30:18;21.02;;;13.90;;
846;SDS011;410;48.954;9.474;2023-02-08T06:32:21;20.15;;;12.93;;
846;SDS011;410;48.954;9.474;2023-02-08T06:34:24;24.50;;;14.23;;
846;SDS011;410;48.954;9.474;2023-02-08T06:36:27;23.20;;;14.00;;
846;SDS011;410;48.954;9.474;2023-02-08T06:38:32;19.60;;;12.70;;
846;SDS011;410;48.954;9.474;2023-02-08T06:40:35;21.23;;;12.80;;
846;SDS011;410;48.954;9.474;2023-02-08T06:42:38;21.10;;;14.10;;
846;SDS011;410;48.954;9.474;2023-02-08T06:44:43;19.00;;;13.02;;
846;SDS011;410;48.954;9.474;2023-02-08T06:46:55;24.33;;;13.35;;
846;SDS011;410;48.954;9.474;2023-02-08T06:48:58;26.48;;;13.95;;
846;SDS011;410;48.954;9.474;2023-02-08T06:51:02;24.05;;;15.32;;
846;SDS011;410;48.954;9.474;2023-02-08T06:53:05;22.73;;;14.55;;
846;SDS011;410;48.954;9.474;2023-02-08T06:55:09;22.00;;;12.95;;
846;SDS011;410;48.954;9.474;2023-02-08T06:57:13;23.23;;;13.98;;
846;SDS011;410;48.954;9.474;2023-02-08T06:59:16;22.05;;;13.48;;
846;SDS011;410;48.954;9.474;2023-02-08T07:01:19;22.23;;;13.65;;
846;SDS011;410;48.954;9.474;2023-02-08T07:03:22;27.00;;;14.00;;
846;SDS011;410;48.954;9.474;2023-02-08T07:05:25;23.30;;;12.82;;
846;SDS011;410;48.954;9.474;2023-02-08T07:07:28;23.67;;;13.30;;
846;SDS011;410;48.954;9.474;2023-02-08T07:09:31;20.05;;;13.50;;
846;SDS011;410;48.954;9.474;2023-02-08T07:11:36;23.58;;;14.55;;
846;SDS011;410;48.954;9.474;2023-02-08T07:13:39;21.23;;;13.38;;
846;SDS011;410;48.954;9.474;2023-02-08T07:15:42;21.40;;;13.25;;
846;SDS011;410;48.954;9.474;2023-02-08T07:17:46;21.45;;;14.60;;
846;SDS011;410;48.954;9.474;2023-02-08T07:19:49;24.13;;;13.90;;
846;SDS011;410;48.954;9.474;2023-02-08T07:21:52;23.67;;;15.45;;
846;SDS011;410;48.954;9.474;2023-02-08T07:23:55;24.50;;;13.85;;
846;SDS011;410;48.954;9.474;2023-02-08T07:25:59;21.23;;;14.15;;
846;SDS011;410;48.954;9.474;2023-02-08T07:28:04;23.85;;;13.68;;
846;SDS011;410;48.954;9.474;2023-02-08T07:30:08;22.20;;;13.50;;
846;SDS011;410;48.954;9.474;2023-02-08T07:32:12;22.48;;;14.50;;
846;SDS011;410;48.954;9.474;2023-02-08T07:34:15;18.92;;;12.98;;
846;SDS011;410;48.954;9.474;2023-02-08T07:36:22;22.63;;;14.63;;
846;SDS011;410;48.954;9.474;2023-02-08T07:38:25;20.95;;;13.85;;
846;SDS011;410;48.954;9.474;2023-02-08T07:40:28;22.60;;;14.55;;
846;SDS011;410;48.954;9.474;2023-02-08T07:42:32;24.08;;;13.73;;
846;SDS011;410;48.954;9.474;2023-02-08T07:44:50;23.90;;;14.30;;
846;SDS011;410;48.954;9.474;2023-02-08T07:46:54;24.38;;;14.60;;
846;SDS011;410;48.954;9.474;2023-02-08T07:48:57;23.88;;;14.63;;
846;SDS011;410;48.954;9.474;2023-02-08T07:51:00;21.55;;;15.07;;
846;SDS011;410;48.954;9.474;2023-02-08T07:53:03;21.98;;;13.95;;
846;SDS011;410;48.954;9.474;2023-02-08T07:55:07;24.70;;;14.68;;
846;SDS011;410;48.954;9.474;2023-02-08T07:57:10;23.13;;;14.45;;
846;SDS011;410;48.954;9.474;2023-02-08T07:59:13;23.48;;;14.77;;
846;SDS011;410;48.954;9.474;2023-02-08T08:01:18;21.88;;;14.60;;
846;SDS011;410;48.954;9.474;2023-02-08T08:03:23;22.35;;;15.05;;
846;SDS011;410;48.954;9.474;2023-02-08T08:05:26;21.67;;;14.70;;
846;SDS011;410;48.954;9.474;2023-02-08T08:07:29;23.58;;;14.50;;
846;SDS011;410;48.954;9.474;2023-02-08T08:09:32;22.33;;;14.50;;
846;SDS011;410;48.954;9.474;2023-02-08T08:11:35;22.33;;;14.95;;
846;SDS011;410;48.954;9.474;2023-02-08T08:13:38;24.20;;;14.65;;
846;SDS011;410;48.954;9.474;2023-02-08T08:15:41;21.73;;;15.02;;
846;SDS011;410;48.954;9.474;2023-02-08T08:17:46;22.67;;;14.77;;
846;SDS011;410;48.954;9.474;2023-02-08T08:19:49;24.20;;;14.38;;
846;SDS011;410;48.954;9.474;2023-02-08T08:21:52;22.85;;;13.93;;
846;SDS011;410;48.954;9.474;2023-02-08T08:23:55;22.80;;;14.70;;
846;SDS011;410;48.954;9.474;2023-02-08T08:25:58;22.10;;;14.38;;
846;SDS011;410;48.954;9.474;2023-02-08T08:28:01;22.45;;;14.98;;
846;SDS011;410;48.954;9.474;2023-02-08T08:30:05;24.00;;;14.57;;
846;SDS011;410;48.954;9.474;2023-02-08T08:32:08;22.42;;;14.70;;
846;SDS011;410;48.954;9.474;2023-02-08T08:34:13;18.73;;;13.52;;
846;SDS011;410;48.954;9.474;2023-02-08T08:36:16;23.75;;;15.18;;
846;SDS011;410;48.954;9.474;2023-02-08T08:38:19;22.17;;;14.10;;
846;SDS011;410;48.954;9.474;2023-02-08T08:40:22;23.40;;;14.93;;
846;SDS011;410;48.954;9.474;2023-02-08T08:42:26;20.92;;;14.68;;
846;SDS011;410;48.954;9.474;2023-02-08T08:44:29;20.42;;;14.30;;
846;SDS011;410;48.954;9.474;2023-02-08T08:46:32;19.92;;;14.40;;
846;SDS011;410;48.954;9.474;2023-02-08T08:48:35;22.25;;;14.35;;
846;SDS011;410;48.954;9.474;2023-02-08T08:50:40;25.00;;;16.15;;
846;SDS011;410;48.954;9.474;2023-02-08T08:52:44;23.70;;;15.25;;
846;SDS011;410;48.954;9.474;2023-02-08T08:54:47;21.30;;;14.43;;
846;SDS011;410;48.954;9.474;2023-02-08T08:56:50;30.10;;;18.77;;
846;SDS011;410;48.954;9.474;2023-02-08T08:58:53;24.15;;;14.65;;
846;SDS011;410;48.954;9.474;2023-02-08T09:00:56;20.92;;;14.07;;
846;SDS011;410;48.954;9.474;2023-02-08T09:03:00;22.50;;;13.88;;
846;SDS011;410;48.954;9.474;2023-02-08T09:05:04;25.08;;;14.23;;
846;SDS011;410;48.954;9.474;2023-02-08T09:07:10;22.10;;;13.55;;
846;SDS011;410;48.954;9.474;2023-02-08T09:09:13;23.10;;;12.82;;
846;SDS011;410;48.954;9.474;2023-02-08T09:11:16;19.48;;;13.63;;
846;SDS011;410;48.954;9.474;2023-02-08T09:13:19;22.58;;;14.43;;
846;SDS011;410;48.954;9.474;2023-02-08T09:15:22;22.90;;;15.57;;
846;SDS011;410;48.954;9.474;2023-02-08T09:17:25;20.52;;;14.43;;
846;SDS011;410;48.954;9.474;2023-02-08T09:19:28;23.45;;;14.52;;
846;SDS011;410;48.954;9.474;2023-02-08T09:21:32;20.00;;;13.90;;
846;SDS011;410;48.954;9.474;2023-02-08T09:23:37;16.83;;;12.10;;
846;SDS011;410;48.954;9.474;2023-02-08T09:25:40;22.23;;;14.23;;
846;SDS011;410;48.954;9.474;2023-02-08T09:27:43;19.73;;;12.93;;
846;SDS011;410;48.954;9.474;2023-02-08T09:29:46;18.83;;;13.52;;
846;SDS011;410;48.954;9.474;2023-02-08T09:31:49;23.38;;;15.57;;
846;SDS011;410;48.954;9.474;2023-02-08T09:33:53;18.67;;;13.27;;
846;SDS011;410;48.954;9.474;2023-02-08T09:35:58;24.45;;;15.27;;
846;SDS011;410;48.954;9.474;2023-02-08T09:38:01;21.80;;;14.13;;
846;SDS011;410;48.954;9.474;2023-02-08T09:40:09;23.67;;;15.10;;
846;SDS011;410;48.954;9.474;2023-02-08T09:42:24;20.08;;;12.93;;
846;SDS011;410;48.954;9.474;2023-02-08T09:44:31;19.88;;;14.13;;
846;SDS011;410;48.954;9.474;2023-02-08T09:46:38;18.95;;;13.18;;
846;SDS011;410;48.954;9.474;2023-02-08T09:48:43;16.63;;;12.55;;
846;SDS011;410;48.954;9.474;2023-02-08T09:50:48;20.02;;;13.10;;
846;SDS011;410;48.954;9.474;2023-02-08T09:52:53;18.27;;;12.90;;
846;SDS011;410;48.954;9.474;2023-02-08T09:55:02;18.98;;;12.50;;
846;SDS011;410;48.954;9.474;2023-02-08T09:57:12;18.60;;;12.82;;
846;SDS011;410;48.954;9.474;2023-02-08T09:59:19;17.92;;;12.07;;
846;SDS011;410;48.954;9.474;2023-02-08T10:01:25;21.13;;;13.88;;
846;SDS011;410;48.954;9.474;2023-02-08T10:03:33;21.63;;;12.98;;
846;SDS011;410;48.954;9.474;2023-02-08T10:05:38;18.25;;;12.98;;
846;SDS011;410;48.954;9.474;2023-02-08T10:07:41;19.83;;;13.13;;
846;SDS011;410;48.954;9.474;2023-02-08T10:09:44;19.73;;;12.95;;
846;SDS011;410;48.954;9.474;2023-02-08T10:11:49;15.98;;;11.65;;
846;SDS011;410;48.954;9.474;2023-02-08T10:14:03;15.50;;;11.35;;
846;SDS011;410;48.954;9.474;2023-02-08T10:16:18;19.10;;;12.05;;
846;SDS011;410;48.954;9.474;2023-02-08T10:18:29;16.00;;;11.88;;
846;SDS011;410;48.954;9.474;2023-02-08T10:20:44;17.10;;;11.40;;
846;SDS011;410;48.954;9.474;2023-02-08T10:22:54;18.00;;;11.38;;
846;SDS011;410;48.954;9.474;2023-02-08T10:27:44;18.42;;;11.80;;
846;SDS011;410;48.954;9.474;2023-02-08T10:29:59;17.67;;;10.95;;
846;SDS011;410;48.954;9.474;2023-02-08T10:32:19;17.20;;;10.88;;
846;SDS011;410;48.954;9.474;2023-02-08T10:34:42;15.38;;;11.02;;
846;SDS011;410;48.954;9.474;2023-02-08T10:36:49;15.07;;;10.35;;
846;SDS011;410;48.954;9.474;2023-02-08T10:38:52;14.32;;;10.23;;
846;SDS011;410;48.954;9.474;2023-02-08T10:40:58;16.45;;;10.40;;
846;SDS011;410;48.954;9.474;2023-02-08T10:43:04;18.40;;;12.63;;
846;SDS011;410;48.954;9.474;2023-02-08T10:45:17;16.10;;;11.07;;
846;SDS011;410;48.954;9.474;2023-02-08T10:47:37;13.20;;;9.10;;
846;SDS011;410;48.954;9.474;2023-02-08T10:49:47;14.40;;;9.60;;
846;SDS011;410;48.954;9.474;2023-02-08T10:51:52;14.10;;;9.70;;
846;SDS011;410;48.954;9.474;2023-02-08T10:53:55;14.63;;;10.02;;
846;SDS011;410;48.954;9.474;2023-02-08T10:55:59;17.73;;;10.25;;
846;SDS011;410;48.954;9.474;2023-02-08T10:58:03;15.23;;;9.15;;
846;SDS011;410;48.954;9.474;2023-02-08T11:00:09;15.70;;;9.30;;
846;SDS011;410;48.954;9.474;2023-02-08T11:02:20;18.20;;;10.70;;
846;SDS011;410;48.954;9.474;2023-02-08T11:04:27;13.98;;;9.52;;
846;SDS011;410;48.954;9.474;2023-02-08T11:06:30;12.48;;;8.40;;
846;SDS011;410;48.954;9.474;2023-02-08T11:08:33;12.65;;;9.23;;
846;SDS011;410;48.954;9.474;2023-02-08T11:10:56;14.00;;;9.85;;
846;SDS011;410;48.954;9.474;2023-02-08T11:13:03;13.02;;;9.07;;
846;SDS011;410;48.954;9.474;2023-02-08T11:15:20;12.98;;;8.70;;
846;SDS011;410;48.954;9.474;2023-02-08T11:17:26;11.10;;;7.57;;
846;SDS011;410;48.954;9.474;2023-02-08T11:19:32;11.60;;;7.88;;
846;SDS011;410;48.954;9.474;2023-02-08T11:21:37;15.30;;;8.52;;
846;SDS011;410;48.954;9.474;2023-02-08T11:23:41;10.95;;;7.60;;
846;SDS011;410;48.954;9.474;2023-02-08T11:25:45;12.85;;;7.60;;
846;SDS011;410;48.954;9.474;2023-02-08T11:27:48;11.50;;;7.45;;
846;SDS011;410;48.954;9.474;2023-02-08T11:29:52;10.80;;;7.25;;
846;SDS011;410;48.954;9.474;2023-02-08T11:32:18;9.65;;;7.40;;
846;SDS011;410;48.954;9.474;2023-02-08T11:34:24;9.63;;;8.10;;
846;SDS011;410;48.954;9.474;2023-02-08T11:36:29;12.18;;;7.65;;
846;SDS011;410;48.954;9.474;2023-02-08T11:38:34;11.07;;;7.28;;
846;SDS011;410;48.954;9.474;2023-02-08T11:40:41;9.82;;;7.00;;
846;SDS011;410;48.954;9.474;2023-02-08T11:42:45;9.70;;;6.70;;
846;SDS011;410;48.954;9.474;2023-02-08T11:44:49;12.90;;;7.50;;
846;SDS011;410;48.954;9.474;2023-02-08T11:46:53;10.30;;;7.40;;
846;SDS011;410;48.954;9.474;2023-02-08T11:48:57;11.80;;;7.65;;
846;SDS011;410;48.954;9.474;2023-02-08T11:51:05;10.73;;;7.90;;
846;SDS011;410;48.954;9.474;2023-02-08T11:53:16;10.73;;;7.22;;
846;SDS011;410;48.954;9.474;2023-02-08T11:55:24;12.30;;;7.72;;
846;SDS011;410;48.954;9.474;2023-02-08T11:57:29;9.50;;;6.72;;
846;SDS011;410;48.954;9.474;2023-02-08T11:59:33;9.30;;;6.80;;
846;SDS011;410;48.954;9.474;2023-02-08T12:01:37;10.55;;;7.45;;
846;SDS011;410;48.954;9.474;2023-02-08T12:03:41;12.23;;;7.60;;
846;SDS011;410;48.954;9.474;2023-02-08T12:05:46;11.50;;;7.70;;
846;SDS011;410;48.954;9.474;2023-02-08T12:08:01;13.25;;;8.60;;
846;SDS011;410;48.954;9.474;2023-02-08T12:10:18;14.85;;;9.70;;
846;SDS011;410;48.954;9.474;2023-02-08T12:12:28;10.15;;;7.05;;
846;SDS011;410;48.954;9.474;2023-02-08T12:14:39;13.10;;;9.25;;
846;SDS011;410;48.954;9.474;2023-02-08T12:21:55;8.73;;;5.93;;
846;SDS011;410;48.954;9.474;2023-02-08T12:24:02;10.27;;;5.25;;
846;SDS011;410;48.954;9.474;2023-02-08T12:26:11;9.45;;;5.50;;
846;SDS011;410;48.954;9.474;2023-02-08T12:28:20;9.43;;;5.60;;
846;SDS011;410;48.954;9.474;2023-02-08T12:30:29;9.98;;;6.07;;
846;SDS011;410;48.954;9.474;2023-02-08T12:32:40;8.45;;;5.35;;
846;SDS011;410;48.954;9.474;2023-02-08T12:34:55;9.45;;;6.43;;
846;SDS011;410;48.954;9.474;2023-02-08T12:37:17;10.98;;;7.32;;
846;SDS011;410;48.954;9.474;2023-02-08T12:39:44;9.10;;;6.82;;
846;SDS011;410;48.954;9.474;2023-02-08T12:42:17;12.07;;;6.53;;
846;SDS011;410;48.954;9.474;2023-02-08T12:44:28;13.57;;;8.52;;
846;SDS011;410;48.954;9.474;2023-02-08T12:46:42;11.80;;;6.78;;
846;SDS011;410;48.954;9.474;2023-02-08T12:49:07;11.48;;;7.78;;
846;SDS011;410;48.954;9.474;2023-02-08T12:51:28;14.52;;;9.20;;
846;SDS011;410;48.954;9.474;2023-02-08T12:53:38;11.27;;;6.80;;
846;SDS011;410;48.954;9.474;2023-02-08T12:55:46;9.60;;;5.93;;
846;SDS011;410;48.954;9.474;2023-02-08T12:57:51;7.60;;;6.00;;
846;SDS011;410;48.954;9.474;2023-02-08T12:59:56;8.55;;;5.88;;
846;SDS011;410;48.954;9.474;2023-02-08T13:02:01;8.65;;;5.85;;
846;SDS011;410;48.954;9.474;2023-02-08T13:04:09;12.63;;;7.15;;
846;SDS011;410;48.954;9.474;2023-02-08T13:06:15;9.27;;;6.28;;
846;SDS011;410;48.954;9.474;2023-02-08T13:08:24;11.15;;;5.95;;
846;SDS011;410;48.954;9.474;2023-02-08T13:10:32;9.80;;;6.35;;
846;SDS011;410;48.954;9.474;2023-02-08T13:12:38;9.48;;;5.75;;